Aérodrome :
LOGIN :

S'inscrire | Disclaimer

   EN    FR    IT 

 










Légende :    VFR   VFR Marginal   IFR   IFR Intensif   IFR Très Intensif
Visi : 
Plafond : 
>= 8 km
>= 3000ft
5 à 8 km
1000 à 3000 ft
1500m à 5 km
500 à 1000 ft
800 à 1500m
200 à 500 ft
< 800m
< 200 ft
Symboles :   Orages  Brouillard  Fortes neiges  Fortes précipitations  Vent > 20 kt
SIGMETs :   Divers  Orages  Givrage  Turbulence  Onde Orograph.  Cendres Volcan.







- Altitude de l'aérodrome : 1674 ft
- Code IATA : BRN


LSZB - Bern Belp

DERNIER METAR :
  • 241220Z 32009KT 300V360 9999 BKN110 21/11 Q1019 NOSIG

METARs EXPIRÉS :
  • 241150Z 33008KT 300V020 9999 FEW050 BKN110 21/09 Q1019 NOSIG
  • 241120Z 04006KT 9999 SCT110 21/09 Q1020 NOSIG
  • 241050Z 31006KT 240V350 9999 SCT110 21/11 Q1020 NOSIG
  • 241020Z VRB02KT 9999 SCT120 20/10 Q1020 NOSIG
  • 240950Z VRB04KT 9999 FEW140 20/11 Q1020 NOSIG

TAF TAF LSZB
Valide du 24 à 12h jusqu'au 24 à 21h UTC


241125Z 2412/2421 31006KT 9999 FEW050 SCT110
ATIS : +41 22 417 40 76
Pas de NOTAMs connus pour ce terrain.



MET'MAP, la Météo Aéronautique d'un coup d'oeil ! - Copyright ORBIFLY Décembre 2007 - Disclaimer

ORBIFLY MET'MAP TEAM :

Programmation & Développement : Alexandra Zaïnal
Conception & Développement : Baudouin d'Aumeries
Co-Programmation & Développement : Marc-Olivier Méhu
Soutien technique & logistique : Manuel Goepfert

Contact : metmap@orbifly.com




SOURCES & CREDITS :

   NOAA